createdAt,value
2023-06-04T00:00:20.291Z,14.10
2023-06-04T00:03:09.186Z,14.20
2023-06-04T00:06:03.257Z,14.10
2023-06-04T00:08:51.918Z,14.10
2023-06-04T00:11:40.711Z,14.10
2023-06-04T00:14:29.573Z,14.10
2023-06-04T00:17:18.471Z,14.10
2023-06-04T00:20:08.432Z,13.90
2023-06-04T00:22:58.583Z,13.90
2023-06-04T00:25:47.484Z,13.90
2023-06-04T00:28:39.753Z,13.80
2023-06-04T00:31:28.681Z,13.90
2023-06-04T00:34:18.956Z,13.80
2023-06-04T00:37:08.189Z,13.70
2023-06-04T00:39:58.499Z,13.60
2023-06-04T00:42:47.812Z,13.70
2023-06-04T00:45:36.613Z,13.60
2023-06-04T00:48:28.470Z,13.40
2023-06-04T00:51:17.256Z,13.40
2023-06-04T00:54:09.866Z,13.40
2023-06-04T00:57:04.274Z,13.50
2023-06-04T00:59:53.383Z,13.40
2023-06-04T01:02:46.287Z,13.50
2023-06-04T01:05:40.132Z,13.60
2023-06-04T01:08:29.690Z,13.30
2023-06-04T01:11:18.826Z,13.40
2023-06-04T01:14:11.592Z,13.50
2023-06-04T01:17:04.794Z,13.40
2023-06-04T01:20:21.080Z,13.10
2023-06-04T01:23:25.682Z,13.20
2023-06-04T01:26:15.556Z,13.10
2023-06-04T01:29:04.908Z,13.10
2023-06-04T01:31:55.634Z,13.20
2023-06-04T01:34:47.552Z,13.20
2023-06-04T01:37:39.712Z,13.30
2023-06-04T01:40:28.581Z,13.10
2023-06-04T01:43:17.960Z,12.90
2023-06-04T01:46:06.965Z,12.70
2023-06-04T01:48:57.421Z,12.50
2023-06-04T01:51:46.123Z,12.60
2023-06-04T01:54:35.042Z,12.50
2023-06-04T01:57:24.065Z,12.50
2023-06-04T02:00:14.415Z,12.80
2023-06-04T02:03:03.465Z,12.60
2023-06-04T02:05:53.708Z,12.80
2023-06-04T02:08:43.686Z,12.60
2023-06-04T02:11:32.571Z,12.50
2023-06-04T02:14:21.317Z,12.70
2023-06-04T02:17:13.626Z,12.90
2023-06-04T02:20:03.262Z,12.90
2023-06-04T02:22:53.834Z,13.00
2023-06-04T02:25:42.761Z,13.10
2023-06-04T02:28:31.870Z,12.90
2023-06-04T02:31:20.549Z,12.90
2023-06-04T02:34:09.267Z,12.90
2023-06-04T02:36:58.096Z,12.70
2023-06-04T02:39:48.134Z,12.70
2023-06-04T02:42:36.844Z,12.60
2023-06-04T02:45:26.156Z,12.70
2023-06-04T02:48:15.378Z,12.70
2023-06-04T02:51:04.177Z,12.50
2023-06-04T02:53:53.185Z,12.50
2023-06-04T02:56:44.435Z,12.70
2023-06-04T02:59:34.164Z,12.80
2023-06-04T03:02:23.098Z,12.90
2023-06-04T03:08:05.075Z,12.80
2023-06-04T03:10:55.438Z,12.70
2023-06-04T03:13:45.586Z,12.90
2023-06-04T03:16:34.439Z,12.80
2023-06-04T03:19:23.182Z,12.70
2023-06-04T03:22:12.371Z,12.70
2023-06-04T03:25:01.244Z,12.30
2023-06-04T03:27:49.990Z,12.40
2023-06-04T03:30:41.582Z,12.40
2023-06-04T03:33:31.045Z,12.50
2023-06-04T03:36:20.112Z,12.60
2023-06-04T03:39:08.885Z,12.70
2023-06-04T03:41:58.809Z,12.50
2023-06-04T03:44:48.251Z,12.70
2023-06-04T03:47:41.264Z,12.60
2023-06-04T03:50:31.235Z,12.30
2023-06-04T03:53:20.053Z,12.50
2023-06-04T03:56:08.880Z,12.70
2023-06-04T03:58:58.241Z,12.80
2023-06-04T04:01:47.045Z,12.80
2023-06-04T04:04:37.507Z,12.70
2023-06-04T04:07:26.674Z,12.90
2023-06-04T04:10:16.247Z,13.00
2023-06-04T04:13:04.959Z,13.20
2023-06-04T04:15:57.199Z,13.20
2023-06-04T04:18:46.579Z,13.40
2023-06-04T04:21:37.901Z,13.60
2023-06-04T04:24:27.313Z,13.40
2023-06-04T04:27:24.056Z,13.40
2023-06-04T04:30:15.517Z,13.30
2023-06-04T04:33:07.663Z,13.60
2023-06-04T04:36:02.041Z,13.70
2023-06-04T04:38:56.018Z,13.70
2023-06-04T04:41:50.811Z,13.90
2023-06-04T04:44:39.586Z,14.10
2023-06-04T04:47:28.431Z,14.40
2023-06-04T04:50:17.385Z,14.50
2023-06-04T04:53:10.178Z,14.60
2023-06-04T04:56:01.340Z,14.70
2023-06-04T04:58:51.962Z,14.70
2023-06-04T05:01:41.550Z,14.80
2023-06-04T05:04:30.319Z,14.80
2023-06-04T05:07:21.135Z,15.00
2023-06-04T05:10:11.125Z,15.10
2023-06-04T05:13:02.848Z,15.30
2023-06-04T05:15:59.352Z,15.60
2023-06-04T05:18:52.882Z,15.60
2023-06-04T05:21:45.856Z,15.80
2023-06-04T05:24:34.897Z,15.90
2023-06-04T05:27:26.357Z,15.90
2023-06-04T05:30:17.405Z,15.90
2023-06-04T05:33:06.934Z,16.30
2023-06-04T05:35:59.020Z,16.70
2023-06-04T05:38:58.491Z,17.00
2023-06-04T05:41:52.771Z,16.90
2023-06-04T05:44:41.958Z,16.80
2023-06-04T05:47:34.481Z,16.80
2023-06-04T05:53:12.360Z,16.50
2023-06-04T05:56:01.458Z,16.60
2023-06-04T05:58:54.935Z,16.50
2023-06-04T06:01:46.133Z,16.80
2023-06-04T06:04:36.796Z,16.80
2023-06-04T06:07:25.688Z,17.00
2023-06-04T06:10:14.838Z,17.10
2023-06-04T06:13:03.921Z,17.10
2023-06-04T06:15:54.200Z,17.10
2023-06-04T06:18:43.196Z,17.10
2023-06-04T06:21:33.563Z,17.40
2023-06-04T06:24:22.922Z,17.50
2023-06-04T06:27:14.089Z,17.60
2023-06-04T06:30:03.590Z,17.80
2023-06-04T06:32:54.313Z,18.00
2023-06-04T06:35:47.748Z,18.10
2023-06-04T06:38:37.848Z,18.00
2023-06-04T06:41:27.304Z,18.20
2023-06-04T06:44:16.025Z,18.90
2023-06-04T06:47:04.859Z,19.20
2023-06-04T06:49:53.731Z,19.20
2023-06-04T06:52:42.605Z,18.80
2023-06-04T06:55:32.682Z,18.80
2023-06-04T06:58:21.671Z,19.00
2023-06-04T07:01:10.505Z,19.20
2023-06-04T07:03:59.489Z,19.40
2023-06-04T07:06:48.270Z,19.60
2023-06-04T07:09:37.383Z,19.70
2023-06-04T07:12:27.482Z,20.00
2023-06-04T07:15:16.184Z,20.10
2023-06-04T07:18:04.885Z,20.30
2023-06-04T07:20:57.867Z,20.70
2023-06-04T07:23:48.590Z,20.90
2023-06-04T07:26:37.824Z,20.70
2023-06-04T07:29:28.056Z,21.10
2023-06-04T07:32:16.999Z,21.60
2023-06-04T07:35:06.415Z,22.10
2023-06-04T07:37:55.225Z,22.70
2023-06-04T07:40:43.892Z,23.10
2023-06-04T07:43:32.657Z,23.10
2023-06-04T07:46:23.161Z,23.60
2023-06-04T07:49:12.198Z,23.80
2023-06-04T07:52:15.578Z,23.80
2023-06-04T07:55:05.035Z,24.30
2023-06-04T07:57:53.688Z,24.40
2023-06-04T08:00:46.181Z,24.70
2023-06-04T08:03:37.207Z,24.50
2023-06-04T08:06:27.741Z,25.10
2023-06-04T08:09:16.455Z,24.90
2023-06-04T08:12:05.699Z,25.20
2023-06-04T08:14:58.017Z,25.80
2023-06-04T08:17:46.805Z,25.10
2023-06-04T08:20:37.046Z,25.20
2023-06-04T08:23:25.686Z,25.20
2023-06-04T08:26:14.744Z,25.60
2023-06-04T08:29:05.365Z,25.00
2023-06-04T08:31:54.336Z,25.40
2023-06-04T08:34:42.942Z,25.20
2023-06-04T08:37:33.299Z,25.30
2023-06-04T08:40:23.433Z,25.10
2023-06-04T08:43:13.412Z,25.90
2023-06-04T08:46:06.533Z,26.10
2023-06-04T08:48:58.594Z,26.50
2023-06-04T08:51:50.099Z,26.30
2023-06-04T08:54:40.975Z,26.70
2023-06-04T08:57:33.759Z,26.90
2023-06-04T09:00:22.992Z,26.20
2023-06-04T09:03:13.018Z,26.20
2023-06-04T09:06:02.825Z,26.80
2023-06-04T09:08:57.986Z,26.50
2023-06-04T09:11:54.063Z,27.10
2023-06-04T09:14:42.710Z,26.70
2023-06-04T09:17:34.906Z,27.20
2023-06-04T09:20:24.359Z,27.50
2023-06-04T09:23:17.271Z,27.90
2023-06-04T09:26:10.155Z,27.60
2023-06-04T09:29:01.011Z,27.50
2023-06-04T09:31:59.601Z,28.30
2023-06-04T09:34:48.447Z,28.90
2023-06-04T09:37:37.153Z,29.50
2023-06-04T09:40:26.281Z,30.30
2023-06-04T09:43:24.328Z,30.90
2023-06-04T09:46:16.005Z,31.10
2023-06-04T09:49:06.388Z,31.80
2023-06-04T09:51:55.501Z,32.70
2023-06-04T09:54:44.428Z,33.60
2023-06-04T09:57:37.145Z,33.90
2023-06-04T10:00:26.455Z,34.70
2023-06-04T10:03:20.686Z,35.30
2023-06-04T10:06:10.041Z,34.60
2023-06-04T10:09:01.655Z,34.00
2023-06-04T10:11:55.947Z,33.70
2023-06-04T10:14:55.160Z,34.70
2023-06-04T10:17:46.017Z,35.10
2023-06-04T10:20:36.677Z,35.50
2023-06-04T10:23:26.043Z,35.90
2023-06-04T10:26:17.345Z,36.50
2023-06-04T10:29:07.973Z,35.30
2023-06-04T10:31:57.584Z,37.20
2023-06-04T10:34:46.942Z,38.20
2023-06-04T10:37:37.672Z,39.10
2023-06-04T10:40:34.831Z,40.00
2023-06-04T10:43:23.532Z,40.60
2023-06-04T10:46:16.096Z,40.30
2023-06-04T10:49:04.949Z,40.40
2023-06-04T10:54:46.220Z,41.30
2023-06-04T10:57:35.161Z,40.70
2023-06-04T11:00:24.068Z,40.60
2023-06-04T11:03:13.784Z,41.30
2023-06-04T11:06:02.550Z,41.60
2023-06-04T11:08:51.684Z,41.50
2023-06-04T11:11:42.094Z,42.00
2023-06-04T11:14:30.952Z,42.60
2023-06-04T11:17:19.604Z,41.00
2023-06-04T11:20:19.580Z,38.30
2023-06-04T11:23:08.661Z,39.50
2023-06-04T11:25:59.532Z,41.40
2023-06-04T11:28:52.797Z,42.60
2023-06-04T11:31:46.081Z,43.00
2023-06-04T11:34:35.063Z,42.70
2023-06-04T11:37:23.626Z,43.70
2023-06-04T11:40:19.542Z,43.20
2023-06-04T11:43:11.725Z,44.70
2023-06-04T11:46:07.184Z,44.20
2023-06-04T11:48:59.838Z,43.80
2023-06-04T11:51:49.556Z,45.70
2023-06-04T11:54:39.754Z,45.20
2023-06-04T11:57:28.714Z,47.80
2023-06-04T12:00:18.625Z,47.00
2023-06-04T12:03:08.930Z,47.30
2023-06-04T12:05:57.846Z,46.40
2023-06-04T12:08:50.714Z,44.90
2023-06-04T12:11:39.556Z,43.70
2023-06-04T12:14:29.523Z,42.80
2023-06-04T12:17:18.670Z,45.80
2023-06-04T12:20:10.516Z,46.10
2023-06-04T12:22:59.172Z,47.60
2023-06-04T12:25:52.956Z,49.70
2023-06-04T12:28:41.869Z,49.50
2023-06-04T12:31:33.097Z,50.40
2023-06-04T12:34:21.990Z,49.70
2023-06-04T12:37:12.093Z,49.20
2023-06-04T12:40:00.974Z,47.90
2023-06-04T12:42:52.639Z,46.20
2023-06-04T12:45:41.487Z,46.00
2023-06-04T12:48:30.255Z,45.10
2023-06-04T12:51:19.299Z,37.80
2023-06-04T12:54:09.622Z,37.30
2023-06-04T12:56:58.881Z,34.20
2023-06-04T12:59:47.585Z,32.10
2023-06-04T13:02:36.774Z,30.60
2023-06-04T13:05:25.533Z,29.70
2023-06-04T13:08:14.165Z,29.20
2023-06-04T13:11:04.327Z,28.70
2023-06-04T13:13:53.033Z,28.40
2023-06-04T13:16:42.301Z,27.90
2023-06-04T13:19:31.158Z,27.30
2023-06-04T13:22:19.906Z,26.90
2023-06-04T13:25:09.462Z,26.90
2023-06-04T13:27:59.779Z,26.80
2023-06-04T13:30:49.039Z,26.70
2023-06-04T13:33:40.910Z,26.10
2023-06-04T13:36:30.111Z,25.90
2023-06-04T13:39:18.889Z,25.90
2023-06-04T13:42:08.016Z,25.60
2023-06-04T13:44:58.620Z,25.70
2023-06-04T13:47:47.339Z,25.70
2023-06-04T13:50:36.995Z,25.70
2023-06-04T13:53:25.811Z,25.80
2023-06-04T13:56:14.702Z,25.60
2023-06-04T13:59:03.585Z,25.30
2023-06-04T14:01:53.946Z,25.20
2023-06-04T14:04:42.827Z,25.20
2023-06-04T14:07:32.081Z,24.90
2023-06-04T14:10:20.794Z,24.90
2023-06-04T14:13:10.122Z,24.70
2023-06-04T14:15:58.911Z,24.50
2023-06-04T14:18:49.079Z,24.60
2023-06-04T14:21:37.996Z,24.70
2023-06-04T14:24:26.730Z,24.60
2023-06-04T14:27:16.476Z,24.60
2023-06-04T14:30:06.712Z,24.40
2023-06-04T14:32:55.590Z,24.30
2023-06-04T14:35:48.199Z,24.40
2023-06-04T14:38:40.781Z,24.00
2023-06-04T14:41:29.710Z,24.10
2023-06-04T14:44:18.313Z,23.90
2023-06-04T14:47:07.595Z,23.70
2023-06-04T14:49:56.378Z,23.70
2023-06-04T14:52:47.044Z,23.80
2023-06-04T14:55:36.256Z,23.70
2023-06-04T14:58:25.415Z,23.50
2023-06-04T15:01:14.594Z,23.50
2023-06-04T15:04:03.712Z,23.60
2023-06-04T15:06:52.507Z,23.20
2023-06-04T15:09:49.081Z,23.20
2023-06-04T15:12:39.327Z,23.60
2023-06-04T15:15:28.200Z,23.50
2023-06-04T15:18:16.908Z,23.60
2023-06-04T15:21:05.869Z,23.60
2023-06-04T15:23:54.616Z,23.20
2023-06-04T15:26:45.522Z,23.30
2023-06-04T15:29:34.285Z,23.20
2023-06-04T15:32:23.315Z,23.10
2023-06-04T15:35:13.038Z,23.10
2023-06-04T15:38:01.935Z,23.20
2023-06-04T15:40:50.538Z,23.20
2023-06-04T15:43:40.526Z,23.40
2023-06-04T15:46:29.302Z,23.30
2023-06-04T15:49:18.191Z,23.20
2023-06-04T15:52:10.930Z,23.20
2023-06-04T15:54:59.668Z,23.20
2023-06-04T15:57:48.393Z,23.30
2023-06-04T16:00:38.773Z,23.30
2023-06-04T16:03:27.412Z,23.40
2023-06-04T16:06:16.273Z,23.40
2023-06-04T16:09:05.036Z,23.30
2023-06-04T16:11:54.069Z,23.10
2023-06-04T16:14:42.773Z,23.00
2023-06-04T16:17:33.180Z,22.90
2023-06-04T16:20:22.068Z,22.80
2023-06-04T16:23:11.165Z,22.70
2023-06-04T16:26:00.187Z,22.70
2023-06-04T16:28:48.972Z,22.70
2023-06-04T16:31:37.768Z,22.50
2023-06-04T16:34:27.881Z,22.40
2023-06-04T16:37:16.592Z,22.50
2023-06-04T16:40:06.102Z,22.50
2023-06-04T16:42:54.853Z,22.40
2023-06-04T16:45:44.086Z,22.30
2023-06-04T16:48:32.837Z,22.20
2023-06-04T16:51:22.844Z,22.10
2023-06-04T16:54:11.615Z,22.00
2023-06-04T16:57:01.575Z,21.90
2023-06-04T16:59:50.588Z,21.80
2023-06-04T17:02:39.366Z,21.80
2023-06-04T17:05:28.423Z,21.80
2023-06-04T17:08:18.581Z,21.70
2023-06-04T17:11:07.591Z,21.70
2023-06-04T17:13:56.402Z,21.80
2023-06-04T17:16:45.174Z,21.70
2023-06-04T17:19:34.270Z,21.70
2023-06-04T17:22:23.082Z,21.60
2023-06-04T17:25:13.277Z,21.50
2023-06-04T17:28:02.594Z,21.40
2023-06-04T17:30:51.756Z,21.30
2023-06-04T17:33:40.506Z,21.20
2023-06-04T17:36:29.494Z,21.30
2023-06-04T17:39:18.182Z,21.30
2023-06-04T17:42:08.918Z,21.20
2023-06-04T17:44:57.712Z,21.10
2023-06-04T17:47:46.674Z,21.10
2023-06-04T17:50:35.363Z,20.80
2023-06-04T17:53:24.727Z,20.90
2023-06-04T17:56:13.423Z,20.90
2023-06-04T17:59:03.875Z,21.00
2023-06-04T18:01:52.678Z,21.10
2023-06-04T18:04:41.436Z,21.00
2023-06-04T18:07:30.187Z,20.90
2023-06-04T18:10:18.970Z,20.80
2023-06-04T18:13:07.753Z,20.80
2023-06-04T18:15:58.161Z,20.70
2023-06-04T18:18:46.911Z,20.70
2023-06-04T18:21:35.665Z,20.70
2023-06-04T18:24:24.578Z,20.80
2023-06-04T18:27:13.271Z,20.70
2023-06-04T18:30:02.743Z,20.60
2023-06-04T18:32:54.908Z,20.60
2023-06-04T18:35:43.760Z,20.60
2023-06-04T18:38:32.631Z,20.50
2023-06-04T18:41:21.984Z,20.40
2023-06-04T18:44:10.750Z,20.40
2023-06-04T18:46:59.445Z,20.40
2023-06-04T18:49:49.987Z,20.30
2023-06-04T18:52:39.560Z,20.30
2023-06-04T18:55:28.300Z,20.20
2023-06-04T18:58:17.382Z,20.10
2023-06-04T19:01:07.212Z,20.10
2023-06-04T19:03:56.111Z,20.20
2023-06-04T19:06:46.176Z,20.10
2023-06-04T19:09:34.827Z,20.10
2023-06-04T19:12:23.569Z,20.20
2023-06-04T19:15:16.078Z,20.10
2023-06-04T19:18:05.063Z,20.10
2023-06-04T19:20:53.713Z,20.00
2023-06-04T19:23:44.905Z,20.00
2023-06-04T19:26:33.803Z,19.90
2023-06-04T19:29:22.621Z,19.80
2023-06-04T19:32:11.728Z,19.80
2023-06-04T19:35:03.873Z,19.80
2023-06-04T19:37:52.695Z,19.80
2023-06-04T19:40:42.856Z,19.70
2023-06-04T19:43:32.111Z,19.70
2023-06-04T19:46:20.976Z,19.70
2023-06-04T19:49:10.100Z,19.70
2023-06-04T19:51:58.842Z,19.60
2023-06-04T19:54:47.738Z,19.60
2023-06-04T19:57:38.144Z,19.60
2023-06-04T20:00:26.886Z,19.60
2023-06-04T20:03:15.774Z,19.60
2023-06-04T20:06:06.332Z,19.40
2023-06-04T20:08:55.508Z,19.40
2023-06-04T20:11:44.489Z,19.40
2023-06-04T20:14:34.995Z,19.40
2023-06-04T20:17:23.686Z,19.40
2023-06-04T20:20:12.777Z,19.30
2023-06-04T20:23:01.654Z,19.40
2023-06-04T20:25:51.676Z,19.30
2023-06-04T20:28:41.015Z,19.30
2023-06-04T20:31:32.137Z,19.30
2023-06-04T20:34:22.883Z,19.30
2023-06-04T20:37:11.771Z,19.20
2023-06-04T20:40:01.037Z,19.10
2023-06-04T20:42:51.492Z,19.00
2023-06-04T20:45:40.147Z,19.10
2023-06-04T20:48:30.124Z,19.10
2023-06-04T20:51:18.843Z,19.00
2023-06-04T20:54:11.118Z,19.00
2023-06-04T20:56:59.881Z,18.80
2023-06-04T20:59:48.769Z,18.90
2023-06-04T21:02:37.919Z,18.80
2023-06-04T21:05:28.169Z,18.80
2023-06-04T21:08:17.348Z,18.80
2023-06-04T21:11:06.199Z,18.70
2023-06-04T21:13:55.594Z,18.80
2023-06-04T21:16:44.351Z,18.80
2023-06-04T21:19:33.361Z,18.80
2023-06-04T21:22:23.838Z,18.70
2023-06-04T21:25:12.580Z,18.60
2023-06-04T21:28:01.566Z,18.50
2023-06-04T21:30:50.390Z,18.40
2023-06-04T21:33:39.598Z,18.50
2023-06-04T21:36:28.663Z,18.50
2023-06-04T21:39:18.950Z,18.60
2023-06-04T21:42:08.495Z,18.50
2023-06-04T21:44:57.263Z,18.40
2023-06-04T21:47:46.784Z,18.40
2023-06-04T21:50:35.604Z,18.30
2023-06-04T21:53:24.347Z,18.30
2023-06-04T21:56:14.517Z,18.30
2023-06-04T21:59:03.579Z,18.20
2023-06-04T22:01:52.374Z,18.30
2023-06-04T22:04:41.310Z,18.40
2023-06-04T22:07:30.158Z,18.20
2023-06-04T22:10:18.898Z,18.20
2023-06-04T22:13:09.026Z,18.00
2023-06-04T22:15:58.051Z,18.00
2023-06-04T22:18:52.778Z,18.00
2023-06-04T22:21:42.322Z,17.90
2023-06-04T22:24:31.149Z,17.90
2023-06-04T22:27:20.006Z,17.90
2023-06-04T22:30:11.266Z,17.90
2023-06-04T22:33:00.068Z,17.90
2023-06-04T22:35:48.839Z,17.80
2023-06-04T22:38:38.056Z,17.80
2023-06-04T22:41:27.645Z,17.80
2023-06-04T22:44:16.490Z,17.70
2023-06-04T22:47:08.086Z,17.50
2023-06-04T22:49:58.088Z,17.60
2023-06-04T22:52:46.907Z,17.50
2023-06-04T22:55:35.626Z,17.40
2023-06-04T22:58:24.342Z,17.40
2023-06-04T23:01:13.139Z,17.30
2023-06-04T23:04:03.611Z,17.20
2023-06-04T23:06:52.679Z,17.20
2023-06-04T23:09:41.779Z,17.00
2023-06-04T23:12:30.705Z,16.90
2023-06-04T23:15:22.809Z,16.80
2023-06-04T23:18:11.773Z,16.90
2023-06-04T23:21:05.885Z,16.90
2023-06-04T23:23:58.674Z,17.00
2023-06-04T23:26:47.674Z,17.00
2023-06-04T23:29:36.351Z,16.80
2023-06-04T23:32:25.359Z,16.80
2023-06-04T23:35:18.121Z,16.90
2023-06-04T23:38:08.240Z,17.00
2023-06-04T23:40:56.999Z,16.80
2023-06-04T23:43:45.688Z,16.70
2023-06-04T23:46:34.745Z,16.70
2023-06-04T23:49:23.471Z,16.70
2023-06-04T23:52:13.296Z,16.70
2023-06-04T23:55:03.513Z,16.60
2023-06-04T23:57:52.937Z,16.60
